createdAt,value
2023-01-29T00:00:51.755Z,11.27
2023-01-29T00:03:54.474Z,12.52
2023-01-29T00:06:56.772Z,12.93
2023-01-29T00:09:59.223Z,12.85
2023-01-29T00:13:01.325Z,12.37
2023-01-29T00:16:04.254Z,13.38
2023-01-29T00:19:07.287Z,12.97
2023-01-29T00:22:09.764Z,12.15
2023-01-29T00:25:12.075Z,14.18
2023-01-29T00:28:15.297Z,12.90
2023-01-29T00:31:21.923Z,15.57
2023-01-29T00:34:24.533Z,11.77
2023-01-29T00:37:26.703Z,13.52
2023-01-29T00:40:49.115Z,12.98
2023-01-29T00:44:10.366Z,14.35
2023-01-29T00:47:31.065Z,13.93
2023-01-29T00:50:33.326Z,14.23
2023-01-29T00:53:35.747Z,11.88
2023-01-29T00:56:38.575Z,14.20
2023-01-29T00:59:41.128Z,13.20
2023-01-29T01:03:02.159Z,14.38
2023-01-29T01:06:06.499Z,15.48
2023-01-29T01:09:28.865Z,13.18
2023-01-29T01:12:31.762Z,13.32
2023-01-29T01:15:37.304Z,14.67
2023-01-29T01:18:40.137Z,15.60
2023-01-29T01:21:45.505Z,11.60
2023-01-29T01:24:48.057Z,13.52
2023-01-29T01:27:54.663Z,13.60
2023-01-29T01:30:57.155Z,14.23
2023-01-29T01:33:59.426Z,14.30
2023-01-29T01:37:01.885Z,13.77
2023-01-29T01:40:18.211Z,13.02
2023-01-29T01:43:21.193Z,14.18
2023-01-29T01:46:31.133Z,14.35
2023-01-29T01:49:33.744Z,14.43
2023-01-29T01:52:43.758Z,17.10
2023-01-29T01:55:52.903Z,15.07
2023-01-29T01:58:58.446Z,15.07
2023-01-29T02:02:19.805Z,13.13
2023-01-29T02:05:41.522Z,12.40
2023-01-29T02:09:11.858Z,13.32
2023-01-29T02:12:16.316Z,14.52
2023-01-29T02:15:18.570Z,11.93
2023-01-29T02:18:21.929Z,15.73
2023-01-29T02:21:34.642Z,14.93
2023-01-29T02:24:59.607Z,15.20
2023-01-29T02:28:35.078Z,13.20
2023-01-29T02:31:44.533Z,12.43
2023-01-29T02:35:32.691Z,13.50
2023-01-29T02:39:00.503Z,14.85
2023-01-29T02:42:12.023Z,13.77
2023-01-29T02:45:31.198Z,13.60
2023-01-29T02:48:43.814Z,16.15
2023-01-29T02:51:59.339Z,14.60
2023-01-29T02:55:15.987Z,11.82
2023-01-29T02:58:47.323Z,12.48
2023-01-29T03:01:56.140Z,13.45
2023-01-29T03:05:03.876Z,13.50
2023-01-29T03:08:10.479Z,12.95
2023-01-29T03:11:14.930Z,13.50
2023-01-29T03:14:55.336Z,13.48
2023-01-29T03:18:05.646Z,11.70
2023-01-29T03:21:32.545Z,14.50
2023-01-29T03:25:08.599Z,13.23
2023-01-29T03:28:34.237Z,12.30
2023-01-29T03:31:56.348Z,13.27
2023-01-29T03:35:04.105Z,12.40
2023-01-29T03:38:10.108Z,12.90
2023-01-29T03:41:36.766Z,12.35
2023-01-29T03:45:00.463Z,13.60
2023-01-29T03:48:44.560Z,11.30
2023-01-29T03:52:16.227Z,12.45
2023-01-29T03:55:22.921Z,11.80
2023-01-29T03:58:42.600Z,12.50
2023-01-29T04:01:52.564Z,12.27
2023-01-29T04:04:59.866Z,12.05
2023-01-29T04:08:06.758Z,12.43
2023-01-29T04:11:14.360Z,13.98
2023-01-29T04:14:17.670Z,11.10
2023-01-29T04:17:24.828Z,10.68
2023-01-29T04:20:27.321Z,12.18
2023-01-29T04:23:29.983Z,12.55
2023-01-29T04:26:32.123Z,13.50
2023-01-29T04:29:47.699Z,10.30
2023-01-29T04:32:56.009Z,10.18
2023-01-29T04:36:23.337Z,10.30
2023-01-29T04:39:32.399Z,10.35
2023-01-29T04:42:42.011Z,8.45
2023-01-29T04:46:13.765Z,11.23
2023-01-29T04:49:31.539Z,9.35
2023-01-29T04:52:48.947Z,9.90
2023-01-29T04:55:56.876Z,10.20
2023-01-29T04:59:07.991Z,9.63
2023-01-29T05:02:12.277Z,8.18
2023-01-29T05:05:18.040Z,8.55
2023-01-29T05:08:23.357Z,10.05
2023-01-29T05:11:26.310Z,9.57
2023-01-29T05:14:34.069Z,8.18
2023-01-29T05:17:36.436Z,9.35
2023-01-29T05:20:41.407Z,7.47
2023-01-29T05:23:53.276Z,8.15
2023-01-29T05:27:14.537Z,7.78
2023-01-29T05:30:17.227Z,8.25
2023-01-29T05:33:29.133Z,8.27
2023-01-29T05:36:31.423Z,9.05
2023-01-29T05:39:33.935Z,8.15
2023-01-29T05:42:36.300Z,7.75
2023-01-29T05:45:38.710Z,9.50
2023-01-29T05:48:40.919Z,10.02
2023-01-29T05:51:43.469Z,8.40
2023-01-29T05:54:45.928Z,8.77
2023-01-29T05:57:48.439Z,9.52
2023-01-29T06:00:50.555Z,9.27
2023-01-29T06:03:53.038Z,10.13
2023-01-29T06:06:55.216Z,7.80
2023-01-29T06:09:57.680Z,7.60
2023-01-29T06:12:59.890Z,7.43
2023-01-29T06:16:06.244Z,9.10
2023-01-29T06:19:08.453Z,8.43
2023-01-29T06:22:10.947Z,8.52
2023-01-29T06:25:13.285Z,7.57
2023-01-29T06:28:15.737Z,10.83
2023-01-29T06:31:37.929Z,9.38
2023-01-29T06:34:41.087Z,9.07
2023-01-29T06:37:43.332Z,8.05
2023-01-29T06:40:45.837Z,9.10
2023-01-29T06:43:48.201Z,9.70
2023-01-29T06:46:50.671Z,7.87
2023-01-29T06:49:52.897Z,9.52
2023-01-29T06:52:55.354Z,8.75
2023-01-29T06:55:57.614Z,7.57
2023-01-29T06:59:00.940Z,8.52
2023-01-29T07:02:03.807Z,9.90
2023-01-29T07:05:06.549Z,8.85
2023-01-29T07:08:09.668Z,10.77
2023-01-29T07:11:12.798Z,9.55
2023-01-29T07:14:15.047Z,8.05
2023-01-29T07:17:17.463Z,7.45
2023-01-29T07:20:19.578Z,8.38
2023-01-29T07:23:22.218Z,7.72
2023-01-29T07:26:24.419Z,7.60
2023-01-29T07:29:26.944Z,9.23
2023-01-29T07:32:29.133Z,7.03
2023-01-29T07:35:32.513Z,7.32
2023-01-29T07:38:34.826Z,7.93
2023-01-29T07:41:37.304Z,8.60
2023-01-29T07:44:43.900Z,7.15
2023-01-29T07:47:52.417Z,7.60
2023-01-29T07:50:56.180Z,7.03
2023-01-29T07:53:58.626Z,8.45
2023-01-29T07:57:00.930Z,7.35
2023-01-29T08:00:03.740Z,6.62
2023-01-29T08:03:17.236Z,7.93
2023-01-29T08:06:19.860Z,8.32
2023-01-29T08:09:22.004Z,7.57
2023-01-29T08:12:24.600Z,9.20
2023-01-29T08:15:27.539Z,7.55
2023-01-29T08:18:31.559Z,8.68
2023-01-29T08:21:33.898Z,8.85
2023-01-29T08:24:47.930Z,6.32
2023-01-29T08:27:59.445Z,6.60
2023-01-29T08:31:02.032Z,8.55
2023-01-29T08:34:04.283Z,7.50
2023-01-29T08:37:06.982Z,7.07
2023-01-29T08:40:10.878Z,7.47
2023-01-29T08:43:13.808Z,6.97
2023-01-29T08:46:16.021Z,6.23
2023-01-29T08:49:18.694Z,7.28
2023-01-29T08:52:20.846Z,6.65
2023-01-29T08:55:23.260Z,7.62
2023-01-29T08:58:25.465Z,7.18
2023-01-29T09:01:28.016Z,7.03
2023-01-29T09:04:30.216Z,7.40
2023-01-29T09:07:33.262Z,7.07
2023-01-29T09:10:35.807Z,6.95
2023-01-29T09:13:38.286Z,5.60
2023-01-29T09:16:40.930Z,5.70
2023-01-29T09:19:43.449Z,6.15
2023-01-29T09:22:46.687Z,5.60
2023-01-29T09:28:51.273Z,6.53
2023-01-29T09:31:53.904Z,6.87
2023-01-29T09:34:56.981Z,6.05
2023-01-29T09:37:59.788Z,6.37
2023-01-29T09:41:24.414Z,7.40
2023-01-29T09:44:54.332Z,5.50
2023-01-29T09:48:00.473Z,5.85
2023-01-29T09:51:08.483Z,5.10
2023-01-29T09:54:22.863Z,6.03
2023-01-29T09:57:49.972Z,6.37
2023-01-29T10:01:01.974Z,5.25
2023-01-29T10:04:23.186Z,5.68
2023-01-29T10:07:28.463Z,6.47
2023-01-29T10:10:51.598Z,5.80
2023-01-29T10:14:04.397Z,5.45
2023-01-29T10:17:24.893Z,6.35
2023-01-29T10:20:45.471Z,5.12
2023-01-29T10:23:53.874Z,4.95
2023-01-29T10:26:56.127Z,5.22
2023-01-29T10:30:00.598Z,5.55
2023-01-29T10:33:05.759Z,5.10
2023-01-29T10:36:15.164Z,5.50
2023-01-29T10:39:22.310Z,6.15
2023-01-29T10:42:41.343Z,4.32
2023-01-29T10:45:53.505Z,4.72
2023-01-29T10:49:29.699Z,4.93
2023-01-29T10:52:54.751Z,5.40
2023-01-29T10:56:21.832Z,4.65
2023-01-29T10:59:32.874Z,5.32
2023-01-29T11:02:35.659Z,4.82
2023-01-29T11:05:44.357Z,6.07
2023-01-29T11:08:56.572Z,4.97
2023-01-29T11:12:13.689Z,5.03
2023-01-29T11:15:32.359Z,5.25
2023-01-29T11:18:52.824Z,5.12
2023-01-29T11:22:01.118Z,4.82
2023-01-29T11:25:18.292Z,4.82
2023-01-29T11:28:40.273Z,4.97
2023-01-29T11:31:42.691Z,5.70
2023-01-29T11:35:14.387Z,5.15
2023-01-29T11:38:16.485Z,5.90
2023-01-29T11:41:22.248Z,4.87
2023-01-29T11:44:40.774Z,6.18
2023-01-29T11:47:48.198Z,4.95
2023-01-29T11:51:10.504Z,6.28
2023-01-29T11:54:19.693Z,5.53
2023-01-29T11:57:28.468Z,4.90
2023-01-29T12:00:35.899Z,4.45
2023-01-29T12:03:44.744Z,5.53
2023-01-29T12:06:51.982Z,4.82
2023-01-29T12:09:57.438Z,6.07
2023-01-29T12:13:20.107Z,5.70
2023-01-29T12:16:29.145Z,5.57
2023-01-29T12:19:36.180Z,4.87
2023-01-29T12:23:03.264Z,5.68
2023-01-29T12:26:12.769Z,4.93
2023-01-29T12:29:27.858Z,4.62
2023-01-29T12:32:55.505Z,4.93
2023-01-29T12:36:10.911Z,6.10
2023-01-29T12:39:17.622Z,5.40
2023-01-29T12:42:22.722Z,4.60
2023-01-29T12:45:28.205Z,5.30
2023-01-29T12:48:36.786Z,4.40
2023-01-29T12:51:59.063Z,4.20
2023-01-29T12:55:07.885Z,5.32
2023-01-29T12:58:16.055Z,4.00
2023-01-29T13:01:28.583Z,5.00
2023-01-29T13:04:40.199Z,5.05
2023-01-29T13:07:50.612Z,5.00
2023-01-29T13:10:54.793Z,4.47
2023-01-29T13:14:04.066Z,4.72
2023-01-29T13:17:27.963Z,5.20
2023-01-29T13:26:41.279Z,4.07
2023-01-29T13:29:44.256Z,4.43
2023-01-29T13:32:52.580Z,4.85
2023-01-29T13:36:00.177Z,4.75
2023-01-29T13:39:07.525Z,4.22
2023-01-29T13:42:17.560Z,5.22
2023-01-29T13:45:51.553Z,5.05
2023-01-29T13:48:58.124Z,5.07
2023-01-29T13:52:23.219Z,4.95
2023-01-29T13:55:31.510Z,5.15
2023-01-29T13:58:33.931Z,4.93
2023-01-29T14:01:48.486Z,5.82
2023-01-29T14:04:51.370Z,4.40
2023-01-29T14:07:53.652Z,4.70
2023-01-29T14:11:19.121Z,4.82
2023-01-29T14:14:49.186Z,4.62
2023-01-29T14:18:02.540Z,5.55
2023-01-29T14:21:23.886Z,5.78
2023-01-29T14:24:30.825Z,5.10
2023-01-29T14:27:35.587Z,5.05
2023-01-29T14:30:40.337Z,5.30
2023-01-29T14:33:43.599Z,5.65
2023-01-29T14:36:55.091Z,5.87
2023-01-29T14:39:59.846Z,5.05
2023-01-29T14:43:04.363Z,5.40
2023-01-29T14:46:34.977Z,5.97
2023-01-29T14:50:26.514Z,6.15
2023-01-29T14:53:51.423Z,5.78
2023-01-29T14:57:05.736Z,5.12
2023-01-29T15:00:20.307Z,6.35
2023-01-29T15:03:35.447Z,5.68
2023-01-29T15:07:16.351Z,5.43
2023-01-29T15:10:40.002Z,5.37
2023-01-29T15:13:56.490Z,5.45
2023-01-29T15:17:24.957Z,6.32
2023-01-29T15:20:36.141Z,5.22
2023-01-29T15:23:39.021Z,6.05
2023-01-29T15:26:43.067Z,5.80
2023-01-29T15:29:59.218Z,5.03
2023-01-29T15:33:03.079Z,5.82
2023-01-29T15:36:07.677Z,6.93
2023-01-29T15:39:13.271Z,6.60
2023-01-29T15:42:21.673Z,5.87
2023-01-29T15:45:29.262Z,7.93
2023-01-29T15:48:36.567Z,7.32
2023-01-29T15:51:39.379Z,7.35
2023-01-29T15:54:41.980Z,7.57
2023-01-29T15:57:45.274Z,7.00
2023-01-29T16:04:03.078Z,6.22
2023-01-29T16:07:05.604Z,7.28
2023-01-29T16:10:17.483Z,7.28
2023-01-29T16:13:26.194Z,6.47
2023-01-29T16:16:29.021Z,7.62
2023-01-29T16:19:31.386Z,7.63
2023-01-29T16:22:37.758Z,7.30
2023-01-29T16:25:39.981Z,7.47
2023-01-29T16:28:44.282Z,7.37
2023-01-29T16:31:48.429Z,6.55
2023-01-29T16:34:57.448Z,7.68
2023-01-29T16:38:04.868Z,7.87
2023-01-29T16:41:15.398Z,6.37
2023-01-29T16:44:20.864Z,6.22
2023-01-29T16:47:43.309Z,7.75
2023-01-29T16:50:54.584Z,8.30
2023-01-29T16:54:11.934Z,6.87
2023-01-29T16:57:19.480Z,7.22
2023-01-29T17:00:28.597Z,7.50
2023-01-29T17:03:33.722Z,8.07
2023-01-29T17:06:36.877Z,7.53
2023-01-29T17:09:39.080Z,8.30
2023-01-29T17:12:41.918Z,8.97
2023-01-29T17:15:47.418Z,9.43
2023-01-29T17:18:50.032Z,7.70
2023-01-29T17:21:52.209Z,8.82
2023-01-29T17:24:54.878Z,8.98
2023-01-29T17:28:01.589Z,9.38
2023-01-29T17:31:06.924Z,8.30
2023-01-29T17:34:14.131Z,7.15
2023-01-29T17:37:17.191Z,9.65
2023-01-29T17:40:42.895Z,8.38
2023-01-29T17:43:45.760Z,8.73
2023-01-29T17:46:48.552Z,9.65
2023-01-29T17:49:51.015Z,7.45
2023-01-29T17:52:53.912Z,8.35
2023-01-29T17:55:56.459Z,8.25
2023-01-29T17:58:58.636Z,8.30
2023-01-29T18:02:01.307Z,7.45
2023-01-29T18:05:04.009Z,9.65
2023-01-29T18:08:06.231Z,8.85
2023-01-29T18:11:11.329Z,8.75
2023-01-29T18:14:14.729Z,7.80
2023-01-29T18:17:22.237Z,8.23
2023-01-29T18:20:27.267Z,8.82
2023-01-29T18:23:31.189Z,8.70
2023-01-29T18:26:35.973Z,9.68
2023-01-29T18:29:38.556Z,9.85
2023-01-29T18:32:40.789Z,9.48
2023-01-29T18:35:45.119Z,6.97
2023-01-29T18:38:47.312Z,9.57
2023-01-29T18:41:49.768Z,9.20
2023-01-29T18:44:52.072Z,11.07
2023-01-29T18:47:54.857Z,10.03
2023-01-29T18:50:57.041Z,8.52
2023-01-29T18:53:59.578Z,8.23
2023-01-29T18:57:12.903Z,7.97
2023-01-29T19:00:17.011Z,9.60
2023-01-29T19:03:19.192Z,9.97
2023-01-29T19:06:21.732Z,9.60
2023-01-29T19:09:24.012Z,8.88
2023-01-29T19:12:26.587Z,9.10
2023-01-29T19:15:29.032Z,9.65
2023-01-29T19:18:31.629Z,7.75
2023-01-29T19:21:36.736Z,7.95
2023-01-29T19:24:39.310Z,10.00
2023-01-29T19:27:41.460Z,9.07
2023-01-29T19:30:44.337Z,7.95
2023-01-29T19:33:46.552Z,7.57
2023-01-29T19:36:49.053Z,8.00
2023-01-29T19:39:51.373Z,8.70
2023-01-29T19:42:55.517Z,6.80
2023-01-29T19:45:59.199Z,8.57
2023-01-29T19:49:03.510Z,6.95
2023-01-29T19:52:07.898Z,8.68
2023-01-29T19:55:10.510Z,9.00
2023-01-29T19:58:12.752Z,8.07
2023-01-29T20:01:20.618Z,8.17
2023-01-29T20:04:23.083Z,9.98
2023-01-29T20:07:25.215Z,8.40
2023-01-29T20:10:27.994Z,8.95
2023-01-29T20:13:30.125Z,8.43
2023-01-29T20:16:32.813Z,8.52
2023-01-29T20:19:35.021Z,7.93
2023-01-29T20:22:37.509Z,7.77
2023-01-29T20:25:40.299Z,8.77
2023-01-29T20:28:43.055Z,9.27
2023-01-29T20:31:45.279Z,8.23
2023-01-29T20:34:51.941Z,7.87
2023-01-29T20:37:54.392Z,7.00
2023-01-29T20:41:17.523Z,8.67
2023-01-29T20:44:19.701Z,10.05
2023-01-29T20:47:22.213Z,8.00
2023-01-29T20:50:24.396Z,7.90
2023-01-29T20:53:26.879Z,7.75
2023-01-29T20:56:36.482Z,11.18
2023-01-29T20:59:45.077Z,8.27
2023-01-29T21:02:47.792Z,9.18
2023-01-29T21:05:52.197Z,9.13
2023-01-29T21:08:54.380Z,8.68
2023-01-29T21:11:56.914Z,9.57
2023-01-29T21:14:59.466Z,9.98
2023-01-29T21:18:04.454Z,9.13
2023-01-29T21:21:06.693Z,8.65
2023-01-29T21:24:09.577Z,8.80
2023-01-29T21:27:11.746Z,9.50
2023-01-29T21:30:14.519Z,9.70
2023-01-29T21:33:16.812Z,9.37
2023-01-29T21:36:19.281Z,7.77
2023-01-29T21:39:24.236Z,7.97
2023-01-29T21:42:45.390Z,8.40
2023-01-29T21:45:55.018Z,8.25
2023-01-29T21:48:57.420Z,9.65
2023-01-29T21:51:59.542Z,10.10
2023-01-29T21:55:02.183Z,10.55
2023-01-29T21:58:04.434Z,9.43
2023-01-29T22:01:18.408Z,8.48
2023-01-29T22:04:29.840Z,10.70
2023-01-29T22:07:32.075Z,11.07
2023-01-29T22:10:36.403Z,9.48
2023-01-29T22:13:38.738Z,9.43
2023-01-29T22:16:41.219Z,10.52
2023-01-29T22:19:43.746Z,8.27
2023-01-29T22:22:46.183Z,10.93
2023-01-29T22:25:48.511Z,9.70
2023-01-29T22:28:51.184Z,10.07
2023-01-29T22:31:53.418Z,9.73
2023-01-29T22:34:55.880Z,9.03
2023-01-29T22:37:58.063Z,10.38
2023-01-29T22:41:00.870Z,8.93
2023-01-29T22:44:03.322Z,10.13
2023-01-29T22:47:05.798Z,10.25
2023-01-29T22:50:08.609Z,8.40
2023-01-29T22:53:11.070Z,9.82
2023-01-29T22:56:13.303Z,11.55
2023-01-29T22:59:15.838Z,8.87
2023-01-29T23:02:17.983Z,7.65
2023-01-29T23:05:20.490Z,10.82
2023-01-29T23:08:22.700Z,10.07
2023-01-29T23:11:25.246Z,10.23
2023-01-29T23:14:27.376Z,9.13
2023-01-29T23:17:29.794Z,9.82
2023-01-29T23:20:32.008Z,10.10
2023-01-29T23:23:36.038Z,11.60
2023-01-29T23:26:56.512Z,10.63
2023-01-29T23:29:58.970Z,11.45
2023-01-29T23:33:01.243Z,10.38
2023-01-29T23:36:04.603Z,9.85
2023-01-29T23:39:06.879Z,9.15
2023-01-29T23:42:09.349Z,10.40
2023-01-29T23:45:11.528Z,11.40
2023-01-29T23:48:14.065Z,10.35
2023-01-29T23:51:16.321Z,9.85
2023-01-29T23:54:18.919Z,10.83
2023-01-29T23:57:21.132Z,10.57
